createdAt,value
2023-05-04T00:00:41.579Z,56.42
2023-05-04T00:02:03.597Z,55.86
2023-05-04T00:03:32.601Z,55.79
2023-05-04T00:05:05.973Z,55.88
2023-05-04T00:06:27.872Z,57.08
2023-05-04T00:08:01.453Z,56.81
2023-05-04T00:09:23.099Z,56.71
2023-05-04T00:10:49.120Z,56.62
2023-05-04T00:12:23.484Z,56.10
2023-05-04T00:13:45.025Z,55.89
2023-05-04T00:15:06.850Z,55.98
2023-05-04T00:16:38.483Z,55.98
2023-05-04T00:18:00.694Z,55.90
2023-05-04T00:19:22.115Z,55.82
2023-05-04T00:20:46.315Z,56.47
2023-05-04T00:22:08.144Z,56.90
2023-05-04T00:23:30.057Z,57.38
2023-05-04T00:24:59.161Z,57.27
2023-05-04T00:26:21.090Z,57.43
2023-05-04T00:27:56.696Z,57.12
2023-05-04T00:29:21.063Z,57.58
2023-05-04T00:30:42.482Z,57.76
2023-05-04T00:32:04.970Z,57.95
2023-05-04T00:33:28.905Z,57.91
2023-05-04T00:34:58.257Z,58.30
2023-05-04T00:36:20.271Z,57.98
2023-05-04T00:37:43.723Z,57.99
2023-05-04T00:39:05.837Z,57.73
2023-05-04T00:40:27.345Z,58.28
2023-05-04T00:41:48.907Z,57.92
2023-05-04T00:43:10.810Z,57.80
2023-05-04T00:44:41.517Z,57.49
2023-05-04T00:46:03.752Z,57.46
2023-05-04T00:47:32.738Z,57.45
2023-05-04T00:48:59.336Z,57.50
2023-05-04T00:50:21.120Z,57.84
2023-05-04T00:51:42.584Z,58.43
2023-05-04T00:53:04.505Z,57.83
2023-05-04T00:54:26.293Z,57.86
2023-05-04T00:55:48.014Z,57.85
2023-05-04T00:57:09.695Z,57.86
2023-05-04T00:58:45.463Z,57.60
2023-05-04T01:00:08.631Z,57.62
2023-05-04T01:01:30.465Z,57.74
2023-05-04T01:02:55.237Z,57.96
2023-05-04T01:04:16.922Z,57.68
2023-05-04T01:05:38.846Z,57.65
2023-05-04T01:07:08.213Z,58.64
2023-05-04T01:08:30.009Z,58.97
2023-05-04T01:09:52.171Z,58.78
2023-05-04T01:11:15.325Z,58.68
2023-05-04T01:12:37.163Z,58.93
2023-05-04T01:13:58.958Z,58.61
2023-05-04T01:15:20.537Z,58.99
2023-05-04T01:16:54.241Z,58.75
2023-05-04T01:18:16.493Z,58.88
2023-05-04T01:19:56.955Z,58.38
2023-05-04T01:21:22.938Z,58.68
2023-05-04T01:22:52.481Z,59.03
2023-05-04T01:24:15.641Z,59.32
2023-05-04T01:25:46.629Z,59.45
2023-05-04T01:27:10.843Z,59.18
2023-05-04T01:28:32.774Z,58.80
2023-05-04T01:29:56.372Z,58.92
2023-05-04T01:31:20.212Z,59.48
2023-05-04T01:32:41.703Z,59.18
2023-05-04T01:34:03.400Z,59.24
2023-05-04T01:35:27.620Z,59.27
2023-05-04T01:37:01.410Z,58.66
2023-05-04T01:38:31.140Z,58.21
2023-05-04T01:39:55.765Z,58.21
2023-05-04T01:41:18.687Z,58.78
2023-05-04T01:42:40.512Z,58.77
2023-05-04T01:44:02.339Z,59.36
2023-05-04T01:45:25.996Z,59.34
2023-05-04T01:46:50.079Z,59.09
2023-05-04T01:48:12.417Z,59.62
2023-05-04T01:49:34.189Z,59.33
2023-05-04T01:51:04.670Z,59.15
2023-05-04T01:52:26.618Z,58.85
2023-05-04T01:54:00.187Z,59.44
2023-05-04T01:55:21.994Z,58.78
2023-05-04T01:56:45.877Z,58.95
2023-05-04T01:58:08.211Z,58.78
2023-05-04T01:59:32.056Z,58.88
2023-05-04T02:00:53.810Z,58.94
2023-05-04T02:02:27.865Z,59.30
2023-05-04T02:03:51.920Z,59.51
2023-05-04T02:05:13.541Z,59.55
2023-05-04T02:06:37.429Z,59.07
2023-05-04T02:08:01.491Z,59.57
2023-05-04T02:09:23.259Z,59.56
2023-05-04T02:10:47.812Z,59.26
2023-05-04T02:12:09.445Z,59.33
2023-05-04T02:13:31.963Z,59.09
2023-05-04T02:14:53.937Z,59.32
2023-05-04T02:16:17.884Z,59.58
2023-05-04T02:17:41.853Z,59.73
2023-05-04T02:19:03.849Z,60.02
2023-05-04T02:20:25.842Z,60.04
2023-05-04T02:21:47.729Z,59.70
2023-05-04T02:23:21.026Z,59.91
2023-05-04T02:24:45.976Z,59.80
2023-05-04T02:26:07.889Z,60.00
2023-05-04T02:27:39.198Z,59.99
2023-05-04T02:29:03.235Z,59.86
2023-05-04T02:30:27.424Z,59.67
2023-05-04T02:31:49.310Z,59.67
2023-05-04T02:33:11.123Z,59.34
2023-05-04T02:34:36.789Z,60.24
2023-05-04T02:35:58.779Z,59.35
2023-05-04T02:37:20.165Z,58.97
2023-05-04T02:38:41.988Z,58.87
2023-05-04T02:40:05.416Z,59.23
2023-05-04T02:41:27.087Z,59.52
2023-05-04T02:42:53.107Z,59.55
2023-05-04T02:44:21.861Z,60.05
2023-05-04T02:45:46.278Z,59.46
2023-05-04T02:47:10.123Z,59.64
2023-05-04T02:48:39.019Z,59.16
2023-05-04T02:50:06.012Z,59.39
2023-05-04T02:51:28.091Z,59.25
2023-05-04T02:52:49.625Z,59.06
2023-05-04T02:54:14.110Z,59.33
2023-05-04T02:55:36.184Z,59.66
2023-05-04T02:56:57.766Z,59.49
2023-05-04T02:58:19.290Z,59.44
2023-05-04T02:59:43.262Z,59.99
2023-05-04T03:01:05.273Z,60.21
2023-05-04T03:02:27.146Z,60.55
2023-05-04T03:03:48.986Z,60.35
2023-05-04T03:05:11.124Z,60.51
2023-05-04T03:06:35.486Z,60.26
2023-05-04T03:07:57.443Z,60.39
2023-05-04T03:09:18.945Z,59.92
2023-05-04T03:10:40.816Z,59.83
2023-05-04T03:12:05.120Z,59.60
2023-05-04T03:13:33.853Z,59.34
2023-05-04T03:14:56.957Z,59.47
2023-05-04T03:16:18.722Z,59.18
2023-05-04T03:17:40.679Z,59.33
2023-05-04T03:19:02.716Z,59.36
2023-05-04T03:20:24.689Z,58.89
2023-05-04T03:21:48.676Z,59.13
2023-05-04T03:23:10.584Z,59.67
2023-05-04T03:24:32.719Z,58.83
2023-05-04T03:25:57.254Z,59.44
2023-05-04T03:27:18.956Z,58.77
2023-05-04T03:28:41.144Z,59.00
2023-05-04T03:30:03.581Z,59.06
2023-05-04T03:31:25.408Z,58.93
2023-05-04T03:32:47.454Z,58.97
2023-05-04T03:34:26.692Z,59.02
2023-05-04T03:35:52.660Z,59.27
2023-05-04T03:37:14.707Z,59.54
2023-05-04T03:38:36.376Z,59.94
2023-05-04T03:39:58.586Z,59.60
2023-05-04T03:41:20.105Z,59.61
2023-05-04T03:42:49.350Z,59.66
2023-05-04T03:44:25.520Z,59.78
2023-05-04T03:45:47.024Z,60.05
2023-05-04T03:47:16.664Z,59.90
2023-05-04T03:48:38.600Z,59.10
2023-05-04T03:50:06.471Z,58.54
2023-05-04T03:51:40.237Z,58.59
2023-05-04T03:53:02.645Z,59.14
2023-05-04T03:54:24.277Z,59.23
2023-05-04T03:55:45.785Z,59.58
2023-05-04T03:57:07.496Z,59.24
2023-05-04T03:58:38.675Z,59.16
2023-05-04T04:00:03.023Z,59.41
2023-05-04T04:01:27.765Z,59.25
2023-05-04T04:02:51.702Z,59.19
2023-05-04T04:04:14.679Z,58.87
2023-05-04T04:05:38.636Z,59.10
2023-05-04T04:07:00.810Z,59.21
2023-05-04T04:08:23.568Z,59.34
2023-05-04T04:09:52.925Z,59.84
2023-05-04T04:11:14.504Z,59.77
2023-05-04T04:12:36.781Z,59.73
2023-05-04T04:14:01.209Z,59.73
2023-05-04T04:15:22.821Z,59.63
2023-05-04T04:16:44.661Z,58.85
2023-05-04T04:18:06.417Z,58.70
2023-05-04T04:19:43.910Z,58.35
2023-05-04T04:21:10.093Z,58.50
2023-05-04T04:22:33.920Z,58.31
2023-05-04T04:23:55.818Z,59.02
2023-05-04T04:25:17.657Z,58.10
2023-05-04T04:26:39.351Z,58.39
2023-05-04T04:28:01.125Z,58.06
2023-05-04T04:29:22.976Z,56.87
2023-05-04T04:30:46.862Z,56.31
2023-05-04T04:32:11.120Z,56.24
2023-05-04T04:33:35.397Z,55.43
2023-05-04T04:34:57.201Z,54.61
2023-05-04T04:36:18.907Z,54.87
2023-05-04T04:37:40.646Z,55.20
2023-05-04T04:39:02.326Z,54.73
2023-05-04T04:40:26.234Z,54.35
2023-05-04T04:41:48.064Z,53.73
2023-05-04T04:43:12.336Z,53.94
2023-05-04T04:44:36.052Z,53.36
2023-05-04T04:46:00.858Z,53.11
2023-05-04T04:47:22.660Z,52.91
2023-05-04T04:48:44.310Z,52.04
2023-05-04T04:50:06.750Z,51.37
2023-05-04T04:51:31.032Z,51.44
2023-05-04T04:52:52.933Z,50.72
2023-05-04T04:54:17.116Z,50.56
2023-05-04T04:55:39.592Z,50.67
2023-05-04T04:57:01.303Z,50.58
2023-05-04T04:58:22.658Z,50.29
2023-05-04T04:59:44.487Z,50.28
2023-05-04T05:01:08.210Z,50.61
2023-05-04T05:02:29.803Z,50.52
2023-05-04T05:04:03.497Z,50.28
2023-05-04T05:05:25.460Z,49.91
2023-05-04T05:06:49.855Z,49.26
2023-05-04T05:08:11.852Z,49.27
2023-05-04T05:09:35.835Z,48.76
2023-05-04T05:11:00.120Z,48.69
2023-05-04T05:12:23.717Z,48.06
2023-05-04T05:13:45.225Z,47.74
2023-05-04T05:15:07.439Z,47.13
2023-05-04T05:16:28.993Z,47.13
2023-05-04T05:17:50.537Z,47.47
2023-05-04T05:19:14.708Z,46.87
2023-05-04T05:20:36.559Z,47.13
2023-05-04T05:22:00.826Z,47.04
2023-05-04T05:23:22.461Z,46.95
2023-05-04T05:24:44.660Z,46.74
2023-05-04T05:26:09.418Z,46.88
2023-05-04T05:27:31.310Z,46.61
2023-05-04T05:28:55.338Z,46.13
2023-05-04T05:30:19.466Z,45.81
2023-05-04T05:31:41.519Z,45.64
2023-05-04T05:33:03.822Z,45.17
2023-05-04T05:34:27.708Z,45.05
2023-05-04T05:35:49.826Z,44.90
2023-05-04T05:37:11.784Z,44.44
2023-05-04T05:38:43.557Z,44.28
2023-05-04T05:40:08.091Z,44.02
2023-05-04T05:41:29.765Z,43.99
2023-05-04T05:43:05.882Z,43.97
2023-05-04T05:44:27.510Z,43.66
2023-05-04T05:45:51.412Z,44.35
2023-05-04T05:47:21.029Z,43.67
2023-05-04T05:48:42.931Z,43.47
2023-05-04T05:50:07.072Z,43.64
2023-05-04T05:51:31.021Z,44.39
2023-05-04T05:52:52.894Z,43.60
2023-05-04T05:54:17.302Z,43.43
2023-05-04T05:55:39.038Z,43.03
2023-05-04T05:57:03.406Z,42.39
2023-05-04T05:58:26.105Z,42.66
2023-05-04T05:59:50.431Z,43.21
2023-05-04T06:01:14.776Z,43.82
2023-05-04T06:02:51.196Z,42.84
2023-05-04T06:04:12.904Z,42.38
2023-05-04T06:05:42.092Z,42.65
2023-05-04T06:07:06.394Z,42.25
2023-05-04T06:08:28.402Z,42.18
2023-05-04T06:09:49.977Z,41.26
2023-05-04T06:11:11.860Z,41.15
2023-05-04T06:12:35.968Z,41.57
2023-05-04T06:14:09.685Z,41.18
2023-05-04T06:15:31.210Z,40.58
2023-05-04T06:16:52.721Z,40.91
2023-05-04T06:18:18.991Z,40.98
2023-05-04T06:19:40.954Z,40.82
2023-05-04T06:21:14.563Z,40.48
2023-05-04T06:22:38.596Z,39.64
2023-05-04T06:24:00.304Z,39.31
2023-05-04T06:25:22.213Z,38.53
2023-05-04T06:26:43.710Z,38.60
2023-05-04T06:28:07.639Z,38.80
2023-05-04T06:29:41.186Z,37.65
2023-05-04T06:31:06.244Z,37.94
2023-05-04T06:32:28.008Z,37.80
2023-05-04T06:33:49.772Z,38.19
2023-05-04T06:35:13.733Z,38.25
2023-05-04T06:36:35.915Z,38.63
2023-05-04T06:37:58.312Z,38.62
2023-05-04T06:39:19.865Z,39.09
2023-05-04T06:40:41.633Z,37.97
2023-05-04T06:42:03.752Z,37.78
2023-05-04T06:43:33.016Z,37.81
2023-05-04T06:44:55.071Z,37.25
2023-05-04T06:46:17.080Z,37.93
2023-05-04T06:47:38.841Z,37.70
2023-05-04T06:49:04.142Z,37.57
2023-05-04T06:50:25.643Z,37.30
2023-05-04T06:51:47.286Z,36.67
2023-05-04T06:53:16.807Z,37.00
2023-05-04T06:54:40.231Z,36.55
2023-05-04T06:56:02.635Z,36.41
2023-05-04T06:57:23.893Z,36.31
2023-05-04T06:58:46.155Z,36.00
2023-05-04T07:00:08.342Z,35.84
2023-05-04T07:01:29.949Z,35.91
2023-05-04T07:02:51.928Z,36.03
2023-05-04T07:04:16.372Z,36.43
2023-05-04T07:05:38.235Z,34.52
2023-05-04T07:07:00.621Z,34.12
2023-05-04T07:08:22.545Z,34.77
2023-05-04T07:09:50.274Z,35.24
2023-05-04T07:11:17.052Z,35.31
2023-05-04T07:12:39.749Z,34.44
2023-05-04T07:14:01.492Z,34.47
2023-05-04T07:15:22.893Z,33.96
2023-05-04T07:16:44.851Z,34.06
2023-05-04T07:18:14.130Z,33.26
2023-05-04T07:19:37.920Z,33.35
2023-05-04T07:21:16.113Z,34.44
2023-05-04T07:22:41.676Z,34.28
2023-05-04T07:24:04.651Z,33.99
2023-05-04T07:25:26.358Z,35.09
2023-05-04T07:26:48.446Z,34.78
2023-05-04T07:28:10.333Z,35.01
2023-05-04T07:29:32.312Z,35.07
2023-05-04T07:30:54.073Z,34.92
2023-05-04T07:32:18.327Z,35.41
2023-05-04T07:33:40.238Z,34.88
2023-05-04T07:35:04.584Z,35.24
2023-05-04T07:36:26.716Z,35.00
2023-05-04T07:37:51.600Z,34.17
2023-05-04T07:39:13.751Z,34.50
2023-05-04T07:40:35.600Z,33.83
2023-05-04T07:41:57.261Z,34.23
2023-05-04T07:43:18.841Z,33.20
2023-05-04T07:44:41.276Z,33.00
2023-05-04T07:46:03.407Z,33.25
2023-05-04T07:47:25.224Z,33.43
2023-05-04T07:48:47.472Z,33.66
2023-05-04T07:50:11.865Z,33.62
2023-05-04T07:51:33.615Z,34.40
2023-05-04T07:52:55.681Z,33.92
2023-05-04T07:54:17.438Z,33.98
2023-05-04T07:55:39.051Z,33.17
2023-05-04T07:57:03.746Z,33.41
2023-05-04T07:58:35.528Z,34.09
2023-05-04T08:00:00.011Z,34.30
2023-05-04T08:01:21.357Z,34.44
2023-05-04T08:02:50.467Z,34.48
2023-05-04T08:04:11.987Z,34.16
2023-05-04T08:05:36.019Z,33.52
2023-05-04T08:06:57.701Z,33.07
2023-05-04T08:08:30.906Z,34.14
2023-05-04T08:09:55.003Z,33.81
2023-05-04T08:11:20.518Z,33.89
2023-05-04T08:12:45.593Z,33.94
2023-05-04T08:14:08.183Z,33.69
2023-05-04T08:15:29.918Z,35.58
2023-05-04T08:16:52.158Z,33.39
2023-05-04T08:18:14.110Z,33.19
2023-05-04T08:19:35.910Z,33.86
2023-05-04T08:20:58.309Z,33.13
2023-05-04T08:22:22.258Z,33.36
2023-05-04T08:23:48.530Z,33.17
2023-05-04T08:25:12.550Z,32.76
2023-05-04T08:28:33.532Z,34.39
2023-05-04T08:30:06.951Z,33.42
2023-05-04T08:31:28.232Z,32.13
2023-05-04T08:32:52.953Z,32.47
2023-05-04T08:34:14.961Z,33.45
2023-05-04T08:35:43.924Z,34.26
2023-05-04T08:37:07.792Z,33.70
2023-05-04T08:38:29.999Z,34.35
2023-05-04T08:39:52.082Z,33.40
2023-05-04T08:41:13.800Z,32.75
2023-05-04T08:42:35.364Z,32.92
2023-05-04T08:44:04.617Z,32.74
2023-05-04T08:45:26.444Z,32.31
2023-05-04T08:46:54.337Z,33.24
2023-05-04T08:48:16.286Z,33.73
2023-05-04T08:49:40.301Z,33.20
2023-05-04T08:51:02.050Z,31.88
2023-05-04T08:52:24.692Z,32.82
2023-05-04T08:53:48.893Z,33.17
2023-05-04T08:55:18.070Z,33.00
2023-05-04T08:56:40.154Z,31.43
2023-05-04T08:58:02.003Z,31.81
2023-05-04T08:59:23.465Z,31.37
2023-05-04T09:00:47.928Z,31.56
2023-05-04T09:02:09.760Z,32.00
2023-05-04T09:03:31.603Z,31.55
2023-05-04T09:04:53.421Z,32.14
2023-05-04T09:06:15.138Z,33.94
2023-05-04T09:07:38.985Z,33.23
2023-05-04T09:09:03.653Z,33.95
2023-05-04T09:10:26.893Z,32.15
2023-05-04T09:11:52.839Z,31.67
2023-05-04T09:13:14.977Z,32.36
2023-05-04T09:14:36.772Z,32.40
2023-05-04T09:15:59.062Z,31.70
2023-05-04T09:17:28.466Z,30.99
2023-05-04T09:18:50.507Z,32.88
2023-05-04T09:20:13.677Z,31.95
2023-05-04T09:21:35.208Z,32.83
2023-05-04T09:22:56.857Z,32.39
2023-05-04T09:24:20.585Z,32.50
2023-05-04T09:25:44.577Z,33.84
2023-05-04T09:27:13.729Z,32.48
2023-05-04T09:28:35.654Z,31.93
2023-05-04T09:29:59.841Z,32.87
2023-05-04T09:31:29.042Z,32.42
2023-05-04T09:32:51.220Z,31.71
2023-05-04T09:34:25.652Z,30.66
2023-05-04T09:35:50.337Z,32.03
2023-05-04T09:37:19.647Z,33.00
2023-05-04T09:38:41.421Z,31.65
2023-05-04T09:40:03.469Z,32.16
2023-05-04T09:41:25.482Z,32.74
2023-05-04T09:42:56.052Z,30.48
2023-05-04T09:44:29.973Z,30.48
2023-05-04T09:45:52.426Z,31.97
2023-05-04T09:47:25.904Z,31.75
2023-05-04T09:48:50.185Z,31.92
2023-05-04T09:50:19.149Z,33.33
2023-05-04T09:51:55.880Z,32.30
2023-05-04T09:53:17.925Z,31.79
2023-05-04T09:54:41.446Z,30.07
2023-05-04T09:56:05.766Z,30.25
2023-05-04T09:57:31.462Z,29.98
2023-05-04T09:58:53.334Z,31.35
2023-05-04T10:00:16.086Z,33.35
2023-05-04T10:01:39.990Z,32.67
2023-05-04T10:03:09.679Z,32.03
2023-05-04T10:04:43.293Z,30.42
2023-05-04T10:06:19.296Z,30.56
2023-05-04T10:07:41.617Z,30.89
2023-05-04T10:09:15.585Z,31.05
2023-05-04T10:10:37.519Z,30.56
2023-05-04T10:12:01.559Z,30.04
2023-05-04T10:13:25.618Z,30.09
2023-05-04T10:14:50.176Z,29.90
2023-05-04T10:16:24.577Z,30.53
2023-05-04T10:17:48.528Z,29.72
2023-05-04T10:19:10.550Z,32.40
2023-05-04T10:20:32.139Z,30.84
2023-05-04T10:21:56.188Z,31.39
2023-05-04T10:23:18.159Z,32.46
2023-05-04T10:24:40.441Z,30.75
2023-05-04T10:26:02.725Z,30.35
2023-05-04T10:27:24.258Z,30.19
2023-05-04T10:28:46.186Z,30.91
2023-05-04T10:30:10.857Z,31.85
2023-05-04T10:31:34.752Z,33.48
2023-05-04T10:33:02.197Z,29.88
2023-05-04T10:34:31.286Z,32.88
2023-05-04T10:35:55.306Z,30.20
2023-05-04T10:37:17.284Z,31.06
2023-05-04T10:38:41.464Z,31.54
2023-05-04T10:40:07.799Z,30.09
2023-05-04T10:41:43.952Z,29.33
2023-05-04T10:43:13.703Z,29.53
2023-05-04T10:44:35.752Z,29.37
2023-05-04T10:45:57.921Z,30.22
2023-05-04T10:47:19.758Z,29.87
2023-05-04T10:48:41.629Z,30.02
2023-05-04T10:50:04.615Z,29.83
2023-05-04T10:51:38.754Z,31.17
2023-05-04T10:53:05.796Z,31.59
2023-05-04T10:54:27.350Z,29.30
2023-05-04T10:55:51.589Z,29.10
2023-05-04T10:57:14.489Z,29.39
2023-05-04T10:58:35.906Z,29.31
2023-05-04T10:59:58.178Z,28.65
2023-05-04T11:01:19.471Z,28.52
2023-05-04T11:02:41.230Z,27.99
2023-05-04T11:04:05.919Z,28.76
2023-05-04T11:05:28.234Z,27.15
2023-05-04T11:06:50.478Z,27.63
2023-05-04T11:08:24.222Z,26.67
2023-05-04T11:09:48.537Z,27.77
2023-05-04T11:11:17.736Z,28.95
2023-05-04T11:12:51.591Z,28.72
2023-05-04T11:14:13.242Z,25.77
2023-05-04T11:15:37.512Z,25.74
2023-05-04T11:17:03.892Z,24.95
2023-05-04T11:18:34.853Z,26.17
2023-05-04T11:20:03.932Z,24.82
2023-05-04T11:21:28.895Z,24.88
2023-05-04T11:22:53.642Z,25.15
2023-05-04T11:24:15.466Z,24.93
2023-05-04T11:25:37.657Z,26.13
2023-05-04T11:27:03.406Z,25.02
2023-05-04T11:28:26.712Z,25.73
2023-05-04T11:29:53.162Z,26.97
2023-05-04T11:31:29.058Z,25.56
2023-05-04T11:32:54.015Z,24.78
2023-05-04T11:34:16.734Z,24.63
2023-05-04T11:35:38.554Z,25.73
2023-05-04T11:37:00.417Z,26.19
2023-05-04T11:38:22.158Z,25.83
2023-05-04T11:39:44.027Z,27.12
2023-05-04T11:41:05.708Z,26.49
2023-05-04T11:42:28.181Z,26.73
2023-05-04T11:43:58.888Z,26.67
2023-05-04T11:45:29.983Z,26.34
2023-05-04T11:46:56.200Z,25.25
2023-05-04T11:48:20.124Z,24.30
2023-05-04T11:50:01.466Z,24.87
2023-05-04T11:51:35.343Z,26.38
2023-05-04T11:52:57.308Z,24.06
2023-05-04T11:54:18.870Z,24.41
2023-05-04T11:55:41.103Z,25.48
2023-05-04T11:57:14.794Z,25.29
2023-05-04T11:58:48.113Z,24.93
2023-05-04T12:00:31.626Z,24.13
2023-05-04T12:02:05.221Z,24.36
2023-05-04T12:03:53.009Z,23.76
2023-05-04T12:05:18.419Z,23.45
2023-05-04T12:06:50.024Z,22.95
2023-05-04T12:08:23.963Z,22.15
2023-05-04T12:09:57.364Z,22.56
2023-05-04T12:11:32.589Z,21.88
2023-05-04T12:13:08.348Z,21.30
2023-05-04T12:14:30.058Z,22.15
2023-05-04T12:16:24.391Z,22.00
2023-05-04T12:18:02.511Z,20.92
2023-05-04T12:19:38.600Z,21.28
2023-05-04T12:21:12.022Z,22.34
2023-05-04T12:22:43.184Z,23.06
2023-05-04T12:24:07.958Z,21.78
2023-05-04T12:25:32.169Z,22.75
2023-05-04T12:26:54.157Z,22.23
2023-05-04T12:28:27.879Z,21.97
2023-05-04T12:30:03.754Z,22.61
2023-05-04T12:31:36.680Z,22.32
2023-05-04T12:33:10.278Z,20.92
2023-05-04T12:34:43.986Z,20.32
2023-05-04T12:36:06.293Z,21.11
2023-05-04T12:37:42.109Z,21.32
2023-05-04T12:39:28.084Z,22.14
2023-05-04T12:41:13.350Z,22.76
2023-05-04T12:42:43.423Z,21.00
2023-05-04T12:44:20.104Z,21.20
2023-05-04T12:46:03.427Z,22.18
2023-05-04T12:47:36.513Z,20.95
2023-05-04T12:48:58.647Z,21.07
2023-05-04T12:50:24.704Z,22.29
2023-05-04T12:52:05.525Z,21.45
2023-05-04T12:53:41.880Z,21.66
2023-05-04T12:55:34.054Z,21.86
2023-05-04T12:57:07.867Z,20.10
2023-05-04T12:58:29.416Z,20.97
2023-05-04T13:00:03.332Z,21.12
2023-05-04T13:01:32.464Z,20.54
2023-05-04T13:02:54.746Z,20.31
2023-05-04T13:04:16.617Z,20.23
2023-05-04T13:05:46.358Z,20.88
2023-05-04T13:07:19.890Z,20.65
2023-05-04T13:08:49.210Z,20.74
2023-05-04T13:10:15.280Z,21.51
2023-05-04T13:11:37.378Z,21.14
2023-05-04T13:13:10.509Z,22.35
2023-05-04T13:14:39.222Z,22.36
2023-05-04T13:16:05.930Z,21.22
2023-05-04T13:17:30.730Z,20.98
2023-05-04T13:19:06.227Z,22.30
2023-05-04T13:20:27.941Z,21.24
2023-05-04T13:21:52.093Z,20.79
2023-05-04T13:23:23.604Z,22.01
2023-05-04T13:24:45.362Z,20.89
2023-05-04T13:26:09.660Z,21.42
2023-05-04T13:27:33.385Z,19.85
2023-05-04T13:28:55.381Z,21.34
2023-05-04T13:30:18.279Z,20.33
2023-05-04T13:31:44.765Z,20.25
2023-05-04T13:33:16.754Z,20.40
2023-05-04T13:34:43.548Z,20.37
2023-05-04T13:36:05.705Z,20.30
2023-05-04T13:37:27.808Z,20.94
2023-05-04T13:38:49.746Z,20.50
2023-05-04T13:40:11.383Z,21.18
2023-05-04T13:41:35.710Z,20.32
2023-05-04T13:43:16.768Z,20.72
2023-05-04T13:44:41.201Z,20.55
2023-05-04T13:46:10.371Z,20.59
2023-05-04T13:47:34.397Z,20.49
2023-05-04T13:48:57.113Z,21.10
2023-05-04T13:50:26.554Z,20.61
2023-05-04T13:51:58.114Z,20.51
2023-05-04T13:53:24.804Z,20.21
2023-05-04T13:54:56.193Z,19.68
2023-05-04T13:56:20.506Z,19.30
2023-05-04T13:57:42.281Z,19.49
2023-05-04T13:59:06.222Z,19.98
2023-05-04T14:00:32.239Z,19.65
2023-05-04T14:01:54.155Z,18.21
2023-05-04T14:03:18.089Z,17.93
2023-05-04T14:04:40.054Z,17.84
2023-05-04T14:06:04.486Z,18.93
2023-05-04T14:07:28.262Z,19.26
2023-05-04T14:08:50.019Z,19.53
2023-05-04T14:10:11.802Z,18.01
2023-05-04T14:11:33.519Z,18.23
2023-05-04T14:12:57.415Z,18.23
2023-05-04T14:14:19.021Z,19.39
2023-05-04T14:15:41.007Z,19.27
2023-05-04T14:17:04.747Z,20.69
2023-05-04T14:18:27.875Z,19.91
2023-05-04T14:19:49.808Z,19.75
2023-05-04T14:21:14.113Z,19.53
2023-05-04T14:22:38.031Z,18.62
2023-05-04T14:24:07.350Z,17.65
2023-05-04T14:25:43.896Z,18.81
2023-05-04T14:27:08.405Z,18.25
2023-05-04T14:28:32.642Z,17.73
2023-05-04T14:29:58.011Z,17.58
2023-05-04T14:31:19.750Z,17.62
2023-05-04T14:32:51.499Z,17.67
2023-05-04T14:34:12.975Z,18.79
2023-05-04T14:35:37.443Z,19.27
2023-05-04T14:37:01.608Z,18.08
2023-05-04T14:38:23.503Z,17.82
2023-05-04T14:39:52.632Z,18.28
2023-05-04T14:41:33.426Z,18.56
2023-05-04T14:43:07.339Z,18.59
2023-05-04T14:44:31.585Z,19.36
2023-05-04T14:45:53.693Z,18.23
2023-05-04T14:47:27.743Z,18.50
2023-05-04T14:48:56.761Z,18.98
2023-05-04T14:50:25.923Z,18.34
2023-05-04T14:51:48.138Z,17.74
2023-05-04T14:53:30.264Z,18.30
2023-05-04T14:54:54.188Z,18.68
2023-05-04T14:56:15.880Z,18.35
2023-05-04T14:57:49.155Z,18.08
2023-05-04T14:59:22.682Z,17.44
2023-05-04T15:00:46.519Z,17.62
2023-05-04T15:02:08.159Z,16.98
2023-05-04T15:03:32.404Z,17.18
2023-05-04T15:04:53.854Z,17.89
2023-05-04T15:06:15.689Z,17.63
2023-05-04T15:07:37.912Z,16.97
2023-05-04T15:09:02.117Z,17.67
2023-05-04T15:10:23.768Z,17.86
2023-05-04T15:11:54.893Z,19.12
2023-05-04T15:13:17.856Z,17.34
2023-05-04T15:14:40.036Z,17.43
2023-05-04T15:16:02.228Z,17.65
2023-05-04T15:17:26.515Z,18.50
2023-05-04T15:18:48.515Z,18.11
2023-05-04T15:20:11.083Z,18.21
2023-05-04T15:21:32.995Z,18.10
2023-05-04T15:22:54.763Z,18.82
2023-05-04T15:24:16.447Z,18.64
2023-05-04T15:25:38.543Z,18.30
2023-05-04T15:27:01.953Z,18.66
2023-05-04T15:28:26.006Z,18.59
2023-05-04T15:29:50.268Z,18.09
2023-05-04T15:31:27.158Z,18.23
2023-05-04T15:32:51.527Z,17.86
2023-05-04T15:34:13.711Z,17.53
2023-05-04T15:35:36.534Z,17.80
2023-05-04T15:37:09.650Z,17.60
2023-05-04T15:38:31.248Z,17.09
2023-05-04T15:39:53.028Z,17.22
2023-05-04T15:41:27.468Z,18.45
2023-05-04T15:42:49.044Z,18.18
2023-05-04T15:44:10.697Z,18.87
2023-05-04T15:45:40.485Z,19.40
2023-05-04T15:47:08.634Z,19.42
2023-05-04T15:48:30.044Z,21.05
2023-05-04T15:49:52.475Z,21.26
2023-05-04T15:51:21.651Z,21.21
2023-05-04T15:52:43.722Z,21.29
2023-05-04T15:54:05.562Z,21.90
2023-05-04T15:55:27.483Z,21.75
2023-05-04T15:56:49.784Z,21.84
2023-05-04T15:58:22.957Z,22.70
2023-05-04T15:59:47.609Z,22.69
2023-05-04T16:01:13.887Z,21.68
2023-05-04T16:02:39.108Z,22.01
2023-05-04T16:04:02.106Z,22.19
2023-05-04T16:05:25.957Z,22.06
2023-05-04T16:06:57.573Z,22.43
2023-05-04T16:08:27.427Z,23.48
2023-05-04T16:09:48.974Z,23.33
2023-05-04T16:11:10.699Z,23.62
2023-05-04T16:12:32.741Z,24.40
2023-05-04T16:13:54.278Z,23.82
2023-05-04T16:15:16.182Z,24.63
2023-05-04T16:16:38.316Z,24.54
2023-05-04T16:18:00.305Z,24.20
2023-05-04T16:19:25.062Z,24.69
2023-05-04T16:20:46.595Z,25.34
2023-05-04T16:22:08.407Z,26.07
2023-05-04T16:23:30.435Z,25.76
2023-05-04T16:24:54.027Z,25.98
2023-05-04T16:26:16.114Z,26.15
2023-05-04T16:27:37.543Z,26.18
2023-05-04T16:28:59.258Z,26.68
2023-05-04T16:30:21.576Z,26.62
2023-05-04T16:31:43.642Z,27.25
2023-05-04T16:33:05.653Z,26.92
2023-05-04T16:34:27.288Z,27.15
2023-05-04T16:35:49.097Z,27.37
2023-05-04T16:37:11.564Z,27.08
2023-05-04T16:38:33.651Z,27.73
2023-05-04T16:39:57.396Z,28.12
2023-05-04T16:41:19.062Z,27.61
2023-05-04T16:42:43.279Z,27.82
2023-05-04T16:44:05.021Z,27.93
2023-05-04T16:45:34.461Z,28.13
2023-05-04T16:47:03.598Z,28.65
2023-05-04T16:48:25.718Z,29.43
2023-05-04T16:49:47.779Z,29.31
2023-05-04T16:51:09.320Z,29.66
2023-05-04T16:52:30.876Z,29.52
2023-05-04T16:53:52.534Z,30.24
2023-05-04T16:55:14.055Z,30.51
2023-05-04T16:56:36.569Z,30.84
2023-05-04T16:58:00.759Z,30.69
2023-05-04T16:59:24.527Z,30.39
2023-05-04T17:00:46.718Z,30.46
2023-05-04T17:02:08.658Z,30.85
2023-05-04T17:03:32.702Z,30.83
2023-05-04T17:05:01.591Z,30.80
2023-05-04T17:06:25.493Z,30.74
2023-05-04T17:07:47.378Z,31.37
2023-05-04T17:09:09.287Z,31.16
2023-05-04T17:10:30.672Z,30.63
2023-05-04T17:11:54.689Z,31.05
2023-05-04T17:13:18.961Z,31.54
2023-05-04T17:14:41.181Z,32.13
2023-05-04T17:16:03.316Z,31.51
2023-05-04T17:17:25.844Z,32.35
2023-05-04T17:18:47.848Z,31.79
2023-05-04T17:20:14.649Z,31.42
2023-05-04T17:21:36.480Z,32.03
2023-05-04T17:23:01.027Z,32.38
2023-05-04T17:24:22.513Z,32.08
2023-05-04T17:25:45.939Z,32.50
2023-05-04T17:27:07.462Z,32.61
2023-05-04T17:28:29.028Z,33.11
2023-05-04T17:29:51.034Z,33.44
2023-05-04T17:31:13.004Z,33.56
2023-05-04T17:32:37.317Z,33.64
2023-05-04T17:33:59.556Z,34.51
2023-05-04T17:35:25.959Z,35.16
2023-05-04T17:36:50.990Z,34.59
2023-05-04T17:38:12.937Z,34.75
2023-05-04T17:39:37.126Z,34.52
2023-05-04T17:40:58.901Z,34.88
2023-05-04T17:42:20.989Z,34.71
2023-05-04T17:43:45.604Z,35.29
2023-05-04T17:45:07.400Z,35.67
2023-05-04T17:46:33.937Z,36.20
2023-05-04T17:47:58.397Z,36.70
2023-05-04T17:49:20.896Z,36.31
2023-05-04T17:50:45.471Z,37.12
2023-05-04T17:52:07.617Z,36.75
2023-05-04T17:53:29.454Z,37.18
2023-05-04T17:54:51.225Z,37.30
2023-05-04T17:56:12.848Z,37.90
2023-05-04T17:57:34.642Z,38.15
2023-05-04T17:58:56.303Z,38.35
2023-05-04T18:00:18.100Z,38.73
2023-05-04T18:01:42.385Z,38.93
2023-05-04T18:03:04.254Z,39.43
2023-05-04T18:04:26.266Z,39.88
2023-05-04T18:05:48.428Z,39.28
2023-05-04T18:07:12.694Z,39.06
2023-05-04T18:08:36.843Z,39.08
2023-05-04T18:09:58.613Z,38.87
2023-05-04T18:11:20.815Z,39.47
2023-05-04T18:12:46.879Z,39.28
2023-05-04T18:14:10.856Z,39.45
2023-05-04T18:15:32.844Z,39.34